• Join FlightAware (Why Join?)
  • Login
  • US Flag 
07:57PM EDT


 

Airport Tracker/Info


-or-


 

Live Flight TrackerFlight Track Log ✈ UAL5863 ✈ 03-May-2013 ✈ KSBN - KORD

Flight Track Log - Related Links

Times and Time Zones

All times are in EDT time to prevent confusion due to time zone crossing. See the UAL5863 flight status page for this flight to view local times or setup timezone preferences in your user account.

Time Position Orientation Groundspeed Altitude Reporting Facility
EDT Latitude Longitude Course Direction KTS MPH feet Rate Location/Type
08:52PM 41.7606 -86.2789 308° West 250 288 4,100  Level Chicago Center
08:53PM 41.8092 -86.3578 310° West 273 314 6,400 2,460 Climbing Chicago Center
08:54PM 41.8864 -86.5116 308° West  Level FlightAware Approximate
08:54PM 41.8606 -86.4436 309° West 292 336 9,200  Level Chicago Center
08:55PM 41.9266 -86.5798 308° West  Level FlightAware Approximate
08:55PM 41.9144 -86.5364 308° West 312 359 10,000  Level Chicago Center
08:56PM 41.9667 -86.6481 308° West  Level FlightAware Approximate
08:56PM 41.9811 -86.6444 310° West 363 418 10,000  Level Chicago Center
08:57PM 42.0068 -86.7165 308° West  Level FlightAware Approximate
08:57PM 42.0575 -86.7756 308° West 383 441 10,000  Level Chicago Center
08:58PM 42.1214 -86.8817 309° West 374 430 9,900 -780 Descending Chicago Center
08:59PM 42.1583 -86.9800 297° West 313 360 8,400 -960 Descending Chicago Center
09:00PM 42.1631 -87.0875 273° West 292 336 8,000 -180 Descending Chicago Center
09:01PM 42.1728 -87.2186 276° West 295 339 8,100  Climbing Chicago Center
09:02PM 42.1808 -87.3283 276° West 296 341 8,100  Level Chicago Center
09:03PM 42.2228 -87.4217 301° West 294 338 8,100  Level Chicago Center
09:04PM 42.2664 -87.5119 303° West 294 338 8,100 -60 Level Chicago Center
09:05PM 42.3044 -87.6106 298° West 298 343 8,000 -60 Descending Chicago Center
09:06PM 42.3253 -87.6989 288° West 250 288 8,000  Level Chicago Center
09:07PM 42.2947 -87.7836 244° Southwest 210 242 8,000 -360 Level Chicago Center
09:08PM 42.2578 -87.8408 229° Southwest 205 236 7,300 -540 Descending Chicago Center
09:09PM 42.2131 -87.8800 213° Southwest 194 223 7,000 -180 Descending Chicago Center
09:10PM 42.1683 -87.9225 215° Southwest 197 227 7,000  Level Chicago Center
09:11PM 42.1222 -87.9661 215° Southwest 204 235 7,000  Level Chicago Center
09:12PM 42.1039 -88.0453 253° West 199 229 7,000  Level Chicago Center
09:14PM 42.1058 -88.1244 272° West 209 241 7,000 -180 Level Chicago Center
09:15PM 42.1083 -88.1975 273° West 201 231 6,700 -660 Descending Chicago Center
09:16PM 42.1092 -88.2714 271° West 198 228 5,700 -1,020 Descending Chicago Center
09:17PM 42.1042 -88.3469 265° West 201 231 4,700 -840 Descending Chicago Center
09:18PM 42.0972 -88.4264 263° West 205 236 4,000 -420 Descending Chicago Center
09:19PM 42.0647 -88.4786 230° Southwest 179 206 3,900 -60 Descending Chicago Center
09:20PM 42.0183 -88.4833 184° South 169 194 3,900  Level Chicago Center
09:21PM 41.9928 -88.4394 128° Southeast 164 189 4,000  Climbing Chicago Center
09:22PM 41.9808 -88.3850 106° East 158 182 4,000  Level Chicago Center
09:23PM 41.9822 -88.3247 88° East 159 183 4,000  Level Chicago Center
09:24PM 41.9836 -88.2714 88° East 153 176 4,000  Level Chicago Center
09:25PM 41.9831 -88.2064 91° East 148 170 4,000  Level Chicago Center
09:26PM 41.9839 -88.1514 89° East 147 169 4,100 -240 Climbing Chicago Center
09:27PM 41.9833 -88.1000 91° East 143 165 3,600 -840 Descending Chicago TRACON
09:28PM 41.9833 -88.0500 90° East 145 167 2,700 -900 Descending Chicago TRACON